sensor_id;sensor_type;location;lat;lon;timestamp;pressure;altitude;pressure_sealevel;temperature;humidity
71915;BME280;60387;49.994;14.660;2022-07-22T00:00:33;97975.22;;;21.89;51.62
71915;BME280;60387;49.994;14.660;2022-07-22T00:03:07;97971.19;;;21.83;50.74
71915;BME280;60387;49.994;14.660;2022-07-22T00:05:40;97971.56;;;21.81;49.85
71915;BME280;60387;49.994;14.660;2022-07-22T00:08:13;97979.84;;;21.81;51.10
71915;BME280;60387;49.994;14.660;2022-07-22T00:10:47;97985.78;;;21.83;52.62
71915;BME280;60387;49.994;14.660;2022-07-22T00:13:20;97973.41;;;21.74;50.74
71915;BME280;60387;49.994;14.660;2022-07-22T00:15:53;97980.50;;;21.75;52.90
71915;BME280;60387;49.994;14.660;2022-07-22T00:18:27;97979.28;;;21.72;51.63
71915;BME280;60387;49.994;14.660;2022-07-22T00:21:00;97980.03;;;21.69;50.63
71915;BME280;60387;49.994;14.660;2022-07-22T00:23:33;97979.16;;;21.65;51.43
71915;BME280;60387;49.994;14.660;2022-07-22T00:26:07;97978.38;;;21.65;53.66
71915;BME280;60387;49.994;14.660;2022-07-22T00:28:40;97980.16;;;21.57;54.15
71915;BME280;60387;49.994;14.660;2022-07-22T00:31:13;97982.41;;;21.52;52.79
71915;BME280;60387;49.994;14.660;2022-07-22T00:33:47;97980.81;;;21.51;52.02
71915;BME280;60387;49.994;14.660;2022-07-22T00:36:20;97992.59;;;21.48;51.74
71915;BME280;60387;49.994;14.660;2022-07-22T00:38:53;97985.03;;;21.45;52.25
71915;BME280;60387;49.994;14.660;2022-07-22T00:41:27;97983.09;;;21.45;52.55
71915;BME280;60387;49.994;14.660;2022-07-22T00:44:04;97975.03;;;21.37;53.76
71915;BME280;60387;49.994;14.660;2022-07-22T00:46:37;97978.25;;;21.39;52.76
71915;BME280;60387;49.994;14.660;2022-07-22T00:49:11;97973.38;;;21.32;52.38
71915;BME280;60387;49.994;14.660;2022-07-22T00:51:45;97974.97;;;21.33;52.20
71915;BME280;60387;49.994;14.660;2022-07-22T00:54:18;97977.28;;;21.31;53.47
71915;BME280;60387;49.994;14.660;2022-07-22T00:56:52;97982.81;;;21.31;55.69
71915;BME280;60387;49.994;14.660;2022-07-22T00:59:25;97972.09;;;21.26;56.53
71915;BME280;60387;49.994;14.660;2022-07-22T01:01:59;97979.13;;;21.24;55.67
71915;BME280;60387;49.994;14.660;2022-07-22T01:04:32;97966.28;;;21.12;55.99
71915;BME280;60387;49.994;14.660;2022-07-22T01:07:05;97978.47;;;21.11;54.90
71915;BME280;60387;49.994;14.660;2022-07-22T01:09:43;97986.31;;;21.09;54.35
71915;BME280;60387;49.994;14.660;2022-07-22T01:12:16;97970.88;;;21.05;54.74
71915;BME280;60387;49.994;14.660;2022-07-22T01:14:50;97972.75;;;21.01;54.15
71915;BME280;60387;49.994;14.660;2022-07-22T01:17:23;97975.06;;;20.99;53.89
71915;BME280;60387;49.994;14.660;2022-07-22T01:20:04;97971.06;;;20.96;53.87
71915;BME280;60387;49.994;14.660;2022-07-22T01:22:38;97966.28;;;20.93;54.40
71915;BME280;60387;49.994;14.660;2022-07-22T01:25:11;97963.47;;;20.90;53.81
71915;BME280;60387;49.994;14.660;2022-07-22T01:27:45;97956.72;;;20.87;54.08
71915;BME280;60387;49.994;14.660;2022-07-22T01:30:18;97962.22;;;20.87;53.88
71915;BME280;60387;49.994;14.660;2022-07-22T01:32:51;97958.66;;;20.87;53.92
71915;BME280;60387;49.994;14.660;2022-07-22T01:35:25;97961.78;;;20.85;53.61
71915;BME280;60387;49.994;14.660;2022-07-22T01:37:58;97954.66;;;20.84;57.18
71915;BME280;60387;49.994;14.660;2022-07-22T01:40:32;97960.53;;;20.83;56.17
71915;BME280;60387;49.994;14.660;2022-07-22T01:43:05;97965.16;;;20.79;55.13
71915;BME280;60387;49.994;14.660;2022-07-22T01:45:39;97968.28;;;20.77;54.54
71915;BME280;60387;49.994;14.660;2022-07-22T01:48:12;97954.72;;;20.69;55.63
71915;BME280;60387;49.994;14.660;2022-07-22T01:50:46;97959.88;;;20.70;56.05
71915;BME280;60387;49.994;14.660;2022-07-22T01:53:19;97959.44;;;20.68;57.75
71915;BME280;60387;49.994;14.660;2022-07-22T01:55:52;97955.78;;;20.64;57.45
71915;BME280;60387;49.994;14.660;2022-07-22T01:58:26;97959.63;;;20.60;57.77
71915;BME280;60387;49.994;14.660;2022-07-22T02:00:59;97959.53;;;20.56;56.84
71915;BME280;60387;49.994;14.660;2022-07-22T02:03:32;97954.25;;;20.48;56.66
71915;BME280;60387;49.994;14.660;2022-07-22T02:06:06;97954.25;;;20.48;58.25
71915;BME280;60387;49.994;14.660;2022-07-22T02:08:39;97959.34;;;20.46;57.03
71915;BME280;60387;49.994;14.660;2022-07-22T02:11:13;97962.00;;;20.42;57.42
71915;BME280;60387;49.994;14.660;2022-07-22T02:13:46;97959.25;;;20.42;59.54
71915;BME280;60387;49.994;14.660;2022-07-22T02:16:22;97966.25;;;20.40;59.06
71915;BME280;60387;49.994;14.660;2022-07-22T02:18:56;97961.03;;;20.35;57.41
71915;BME280;60387;49.994;14.660;2022-07-22T02:21:29;97961.41;;;20.33;56.90
71915;BME280;60387;49.994;14.660;2022-07-22T02:24:03;97963.34;;;20.33;56.68
71915;BME280;60387;49.994;14.660;2022-07-22T02:26:37;97974.00;;;20.34;56.30
71915;BME280;60387;49.994;14.660;2022-07-22T02:29:10;97974.00;;;20.34;56.66
71915;BME280;60387;49.994;14.660;2022-07-22T02:31:43;97979.50;;;20.34;55.91
71915;BME280;60387;49.994;14.660;2022-07-22T02:34:17;97965.75;;;20.34;55.79
71915;BME280;60387;49.994;14.660;2022-07-22T02:36:50;97974.00;;;20.34;55.56
71915;BME280;60387;49.994;14.660;2022-07-22T02:39:23;97969.28;;;20.35;55.98
71915;BME280;60387;49.994;14.660;2022-07-22T02:41:57;97969.66;;;20.33;55.81
71915;BME280;60387;49.994;14.660;2022-07-22T02:44:30;97968.41;;;20.31;55.67
71915;BME280;60387;49.994;14.660;2022-07-22T02:47:03;97970.34;;;20.30;56.18
71915;BME280;60387;49.994;14.660;2022-07-22T02:49:37;97973.81;;;20.27;56.18
71915;BME280;60387;49.994;14.660;2022-07-22T02:52:10;97972.25;;;20.26;56.07
71915;BME280;60387;49.994;14.660;2022-07-22T02:54:43;97973.75;;;20.24;56.03
71915;BME280;60387;49.994;14.660;2022-07-22T02:57:17;97969.75;;;20.21;56.18
71915;BME280;60387;49.994;14.660;2022-07-22T02:59:51;97968.44;;;20.15;55.80
71915;BME280;60387;49.994;14.660;2022-07-22T03:02:24;97967.28;;;20.16;55.55
71915;BME280;60387;49.994;14.660;2022-07-22T03:04:57;97961.69;;;20.13;55.69
71915;BME280;60387;49.994;14.660;2022-07-22T03:07:31;97963.63;;;20.12;55.86
71915;BME280;60387;49.994;14.660;2022-07-22T03:10:05;97962.78;;;20.08;56.02
71915;BME280;60387;49.994;14.660;2022-07-22T03:12:38;97965.06;;;20.06;56.15
71915;BME280;60387;49.994;14.660;2022-07-22T03:15:12;97977.31;;;20.09;56.46
71915;BME280;60387;49.994;14.660;2022-07-22T03:17:45;97968.50;;;20.03;57.52
71915;BME280;60387;49.994;14.660;2022-07-22T03:20:18;97977.59;;;20.04;56.59
71915;BME280;60387;49.994;14.660;2022-07-22T03:22:52;97973.56;;;20.01;56.18
71915;BME280;60387;49.994;14.660;2022-07-22T03:25:25;97971.78;;;19.93;56.16
71915;BME280;60387;49.994;14.660;2022-07-22T03:27:58;97975.78;;;19.96;56.29
71915;BME280;60387;49.994;14.660;2022-07-22T03:30:32;97976.94;;;19.95;56.22
71915;BME280;60387;49.994;14.660;2022-07-22T03:33:05;97980.03;;;19.93;55.72
71915;BME280;60387;49.994;14.660;2022-07-22T03:35:41;97979.69;;;19.95;56.00
71915;BME280;60387;49.994;14.660;2022-07-22T03:38:14;97977.28;;;19.93;56.19
71915;BME280;60387;49.994;14.660;2022-07-22T03:40:48;97979.94;;;19.90;56.85
71915;BME280;60387;49.994;14.660;2022-07-22T03:43:21;97989.00;;;19.90;57.05
71915;BME280;60387;49.994;14.660;2022-07-22T03:45:54;97981.19;;;19.92;57.27
71915;BME280;60387;49.994;14.660;2022-07-22T03:48:28;97979.50;;;20.03;57.02
71915;BME280;60387;49.994;14.660;2022-07-22T03:51:01;97983.41;;;20.33;56.30
71915;BME280;60387;49.994;14.660;2022-07-22T03:53:34;97982.13;;;20.81;56.00
71915;BME280;60387;49.994;14.660;2022-07-22T03:56:08;97985.13;;;21.29;55.60
71915;BME280;60387;49.994;14.660;2022-07-22T03:58:41;97979.78;;;21.78;54.65
71915;BME280;60387;49.994;14.660;2022-07-22T04:01:14;97979.44;;;22.28;53.78
71915;BME280;60387;49.994;14.660;2022-07-22T04:03:47;97966.66;;;22.68;53.20
71915;BME280;60387;49.994;14.660;2022-07-22T04:06:21;97969.59;;;23.12;52.78
71915;BME280;60387;49.994;14.660;2022-07-22T04:08:54;97976.88;;;23.56;52.20
71915;BME280;60387;49.994;14.660;2022-07-22T04:11:27;97974.53;;;23.98;51.88
71915;BME280;60387;49.994;14.660;2022-07-22T04:14:01;97976.00;;;24.35;51.09
71915;BME280;60387;49.994;14.660;2022-07-22T04:16:34;97965.25;;;24.77;50.90
71915;BME280;60387;49.994;14.660;2022-07-22T04:19:07;97975.00;;;25.22;50.27
71915;BME280;60387;49.994;14.660;2022-07-22T04:21:41;97975.91;;;25.64;50.00
71915;BME280;60387;49.994;14.660;2022-07-22T04:24:14;97970.88;;;26.05;49.08
71915;BME280;60387;49.994;14.660;2022-07-22T04:26:48;97977.19;;;26.44;48.74
71915;BME280;60387;49.994;14.660;2022-07-22T04:29:21;97975.19;;;26.76;48.10
71915;BME280;60387;49.994;14.660;2022-07-22T04:31:54;97975.13;;;27.00;48.00
71915;BME280;60387;49.994;14.660;2022-07-22T04:34:30;97982.22;;;27.22;48.08
71915;BME280;60387;49.994;14.660;2022-07-22T04:37:04;97972.19;;;27.42;47.79
71915;BME280;60387;49.994;14.660;2022-07-22T04:39:37;97966.16;;;27.61;47.61
71915;BME280;60387;49.994;14.660;2022-07-22T04:42:11;97977.19;;;27.78;46.80
71915;BME280;60387;49.994;14.660;2022-07-22T04:44:44;97966.41;;;27.84;46.82
71915;BME280;60387;49.994;14.660;2022-07-22T04:47:20;97969.94;;;27.95;46.84
71915;BME280;60387;49.994;14.660;2022-07-22T04:49:53;97976.63;;;28.04;46.93
71915;BME280;60387;49.994;14.660;2022-07-22T04:52:26;97974.13;;;28.17;46.96
71915;BME280;60387;49.994;14.660;2022-07-22T04:55:00;97976.84;;;28.27;46.53
71915;BME280;60387;49.994;14.660;2022-07-22T04:57:33;97966.03;;;28.36;46.81
71915;BME280;60387;49.994;14.660;2022-07-22T05:00:07;97981.47;;;28.48;46.45
71915;BME280;60387;49.994;14.660;2022-07-22T05:02:41;97969.50;;;28.47;45.91
71915;BME280;60387;49.994;14.660;2022-07-22T05:05:14;97973.50;;;28.46;46.04
71915;BME280;60387;49.994;14.660;2022-07-22T05:07:48;97978.34;;;28.42;46.16
71915;BME280;60387;49.994;14.660;2022-07-22T05:10:21;97973.59;;;28.32;45.93
71915;BME280;60387;49.994;14.660;2022-07-22T05:12:54;97973.28;;;28.23;46.05
71915;BME280;60387;49.994;14.660;2022-07-22T05:15:29;97976.91;;;28.20;45.70
71915;BME280;60387;49.994;14.660;2022-07-22T05:18:02;97975.34;;;28.16;46.26
71915;BME280;60387;49.994;14.660;2022-07-22T05:20:35;97986.47;;;28.19;46.41
71915;BME280;60387;49.994;14.660;2022-07-22T05:23:09;97984.03;;;28.21;45.67
71915;BME280;60387;49.994;14.660;2022-07-22T05:25:42;97984.00;;;28.28;46.09
71915;BME280;60387;49.994;14.660;2022-07-22T05:28:15;97979.16;;;28.39;46.18
71915;BME280;60387;49.994;14.660;2022-07-22T05:30:49;97987.00;;;28.51;45.12
71915;BME280;60387;49.994;14.660;2022-07-22T05:33:22;97981.31;;;28.62;45.53
71915;BME280;60387;49.994;14.660;2022-07-22T05:35:55;97989.97;;;28.74;45.66
71915;BME280;60387;49.994;14.660;2022-07-22T05:38:31;97988.22;;;28.91;45.83
71915;BME280;60387;49.994;14.660;2022-07-22T05:41:05;97978.94;;;29.04;44.49
71915;BME280;60387;49.994;14.660;2022-07-22T05:43:38;97986.38;;;29.14;45.18
71915;BME280;60387;49.994;14.660;2022-07-22T05:46:12;97978.25;;;29.27;44.80
71915;BME280;60387;49.994;14.660;2022-07-22T05:48:45;97981.66;;;29.41;44.55
71915;BME280;60387;49.994;14.660;2022-07-22T05:51:18;97992.16;;;29.64;44.72
71915;BME280;60387;49.994;14.660;2022-07-22T05:53:51;97992.41;;;29.73;42.73
71915;BME280;60387;49.994;14.660;2022-07-22T05:56:25;97989.97;;;29.78;43.55
71915;BME280;60387;49.994;14.660;2022-07-22T05:58:58;97987.06;;;29.85;43.53
71915;BME280;60387;49.994;14.660;2022-07-22T06:01:31;97987.72;;;29.96;42.95
71915;BME280;60387;49.994;14.660;2022-07-22T06:04:05;97988.25;;;30.14;42.53
71915;BME280;60387;49.994;14.660;2022-07-22T06:06:38;97982.31;;;30.35;43.13
71915;BME280;60387;49.994;14.660;2022-07-22T06:09:12;97991.56;;;30.55;42.96
71915;BME280;60387;49.994;14.660;2022-07-22T06:11:45;97986.44;;;30.77;42.90
71915;BME280;60387;49.994;14.660;2022-07-22T06:14:18;97985.22;;;30.97;42.17
71915;BME280;60387;49.994;14.660;2022-07-22T06:16:52;97980.91;;;31.16;40.78
71915;BME280;60387;49.994;14.660;2022-07-22T06:19:25;97985.41;;;31.29;40.27
71915;BME280;60387;49.994;14.660;2022-07-22T06:21:58;97973.59;;;31.41;41.43
71915;BME280;60387;49.994;14.660;2022-07-22T06:24:32;97990.41;;;31.57;39.33
71915;BME280;60387;49.994;14.660;2022-07-22T06:27:05;97983.81;;;31.67;39.64
71915;BME280;60387;49.994;14.660;2022-07-22T06:29:38;97988.44;;;31.77;39.74
71915;BME280;60387;49.994;14.660;2022-07-22T06:32:12;97988.47;;;31.93;39.71
71915;BME280;60387;49.994;14.660;2022-07-22T06:34:45;97981.41;;;32.04;39.33
71915;BME280;60387;49.994;14.660;2022-07-22T06:37:18;97984.94;;;32.24;38.32
71915;BME280;60387;49.994;14.660;2022-07-22T06:39:51;97991.59;;;32.46;39.38
71915;BME280;60387;49.994;14.660;2022-07-22T06:42:25;97984.31;;;32.65;38.27
71915;BME280;60387;49.994;14.660;2022-07-22T06:44:58;97989.75;;;32.88;38.51
71915;BME280;60387;49.994;14.660;2022-07-22T06:47:31;97986.91;;;33.04;37.83
71915;BME280;60387;49.994;14.660;2022-07-22T06:50:06;97986.59;;;33.14;35.96
71915;BME280;60387;49.994;14.660;2022-07-22T06:52:40;97998.53;;;33.18;37.24
71915;BME280;60387;49.994;14.660;2022-07-22T06:55:14;97992.66;;;33.29;36.83
71915;BME280;60387;49.994;14.660;2022-07-22T06:57:47;98003.81;;;33.45;36.83
71915;BME280;60387;49.994;14.660;2022-07-22T07:00:21;98005.34;;;33.62;36.33
71915;BME280;60387;49.994;14.660;2022-07-22T07:02:58;98005.81;;;33.73;36.35
71915;BME280;60387;49.994;14.660;2022-07-22T07:05:31;97996.94;;;33.87;35.83
71915;BME280;60387;49.994;14.660;2022-07-22T07:08:04;98001.81;;;33.99;35.27
71915;BME280;60387;49.994;14.660;2022-07-22T07:10:38;98006.53;;;34.14;35.44
71915;BME280;60387;49.994;14.660;2022-07-22T07:13:11;98002.41;;;34.31;34.70
71915;BME280;60387;49.994;14.660;2022-07-22T07:15:44;97999.91;;;34.46;35.64
71915;BME280;60387;49.994;14.660;2022-07-22T07:18:18;97999.31;;;34.63;34.42
71915;BME280;60387;49.994;14.660;2022-07-22T07:20:51;98001.34;;;34.75;34.39
71915;BME280;60387;49.994;14.660;2022-07-22T07:23:24;98002.78;;;34.80;33.43
71915;BME280;60387;49.994;14.660;2022-07-22T07:25:58;98007.19;;;34.81;32.90
71915;BME280;60387;49.994;14.660;2022-07-22T07:28:31;98006.81;;;34.91;34.45
71915;BME280;60387;49.994;14.660;2022-07-22T07:31:04;98003.53;;;35.05;32.34
71915;BME280;60387;49.994;14.660;2022-07-22T07:33:39;97997.28;;;35.10;32.39
71915;BME280;60387;49.994;14.660;2022-07-22T07:36:12;98002.91;;;35.22;33.36
71915;BME280;60387;49.994;14.660;2022-07-22T07:38:45;98012.09;;;35.35;33.06
71915;BME280;60387;49.994;14.660;2022-07-22T07:41:19;98011.97;;;35.39;30.71
71915;BME280;60387;49.994;14.660;2022-07-22T07:43:52;98005.03;;;35.18;31.33
71915;BME280;60387;49.994;14.660;2022-07-22T07:46:25;97996.97;;;35.08;31.51
71915;BME280;60387;49.994;14.660;2022-07-22T07:48:58;98001.22;;;35.13;31.50
71915;BME280;60387;49.994;14.660;2022-07-22T07:51:32;98007.03;;;35.30;32.10
71915;BME280;60387;49.994;14.660;2022-07-22T07:54:05;98008.59;;;35.53;31.55
71915;BME280;60387;49.994;14.660;2022-07-22T07:56:38;97993.56;;;35.68;30.99
71915;BME280;60387;49.994;14.660;2022-07-22T07:59:12;98000.34;;;36.01;31.00
71915;BME280;60387;49.994;14.660;2022-07-22T08:01:45;97997.78;;;36.25;30.98
71915;BME280;60387;49.994;14.660;2022-07-22T08:04:19;98003.38;;;36.55;31.85
71915;BME280;60387;49.994;14.660;2022-07-22T08:06:52;97990.28;;;36.79;30.24
71915;BME280;60387;49.994;14.660;2022-07-22T08:09:26;98006.31;;;37.00;30.16
71915;BME280;60387;49.994;14.660;2022-07-22T08:11:59;98001.34;;;37.13;28.96
71915;BME280;60387;49.994;14.660;2022-07-22T08:14:33;97996.63;;;37.19;28.77
71915;BME280;60387;49.994;14.660;2022-07-22T08:17:06;97996.31;;;37.26;27.21
71915;BME280;60387;49.994;14.660;2022-07-22T08:19:39;97997.56;;;37.25;27.70
71915;BME280;60387;49.994;14.660;2022-07-22T08:22:12;97998.38;;;37.26;28.63
71915;BME280;60387;49.994;14.660;2022-07-22T08:24:46;97987.66;;;37.30;28.41
71915;BME280;60387;49.994;14.660;2022-07-22T08:27:19;97991.28;;;37.39;29.07
71915;BME280;60387;49.994;14.660;2022-07-22T08:29:53;97997.41;;;37.56;27.37
71915;BME280;60387;49.994;14.660;2022-07-22T08:32:26;97989.88;;;37.62;26.13
71915;BME280;60387;49.994;14.660;2022-07-22T08:35:00;97994.72;;;37.61;26.68
71915;BME280;60387;49.994;14.660;2022-07-22T08:37:33;97991.72;;;37.65;26.21
71915;BME280;60387;49.994;14.660;2022-07-22T08:40:07;97995.53;;;37.62;26.09
71915;BME280;60387;49.994;14.660;2022-07-22T08:42:42;98002.44;;;37.61;26.16
71915;BME280;60387;49.994;14.660;2022-07-22T08:45:16;97990.66;;;37.71;25.99
71915;BME280;60387;49.994;14.660;2022-07-22T08:47:51;98003.63;;;37.87;24.66
71915;BME280;60387;49.994;14.660;2022-07-22T08:50:25;97995.91;;;37.96;25.23
71915;BME280;60387;49.994;14.660;2022-07-22T08:52:58;97994.00;;;38.11;25.77
71915;BME280;60387;49.994;14.660;2022-07-22T08:55:31;97983.25;;;38.24;24.69
71915;BME280;60387;49.994;14.660;2022-07-22T08:58:05;97985.91;;;38.28;24.87
71915;BME280;60387;49.994;14.660;2022-07-22T09:00:39;97988.41;;;38.35;24.33
71915;BME280;60387;49.994;14.660;2022-07-22T09:03:25;97986.03;;;38.33;25.03
71915;BME280;60387;49.994;14.660;2022-07-22T09:05:58;97982.25;;;38.36;25.15
71915;BME280;60387;49.994;14.660;2022-07-22T09:08:53;97992.13;;;38.50;24.12
71915;BME280;60387;49.994;14.660;2022-07-22T09:11:29;97989.41;;;38.55;23.74
71915;BME280;60387;49.994;14.660;2022-07-22T09:14:02;97991.94;;;38.53;22.12
71915;BME280;60387;49.994;14.660;2022-07-22T09:19:15;97976.84;;;38.56;23.89
71915;BME280;60387;49.994;14.660;2022-07-22T09:21:48;97982.13;;;38.63;24.36
71915;BME280;60387;49.994;14.660;2022-07-22T09:24:31;97987.13;;;38.68;23.83
71915;BME280;60387;49.994;14.660;2022-07-22T09:27:05;97985.66;;;38.82;24.09
71915;BME280;60387;49.994;14.660;2022-07-22T09:29:38;97976.91;;;38.94;24.22
71915;BME280;60387;49.994;14.660;2022-07-22T09:32:11;97974.00;;;39.03;24.25
71915;BME280;60387;49.994;14.660;2022-07-22T09:34:45;97962.38;;;39.01;24.17
71915;BME280;60387;49.994;14.660;2022-07-22T09:37:18;97971.59;;;38.87;24.01
71915;BME280;60387;49.994;14.660;2022-07-22T09:39:51;97973.25;;;38.70;23.48
71915;BME280;60387;49.994;14.660;2022-07-22T09:42:25;97967.25;;;38.54;23.78
71915;BME280;60387;49.994;14.660;2022-07-22T09:44:58;97964.03;;;38.37;23.81
71915;BME280;60387;49.994;14.660;2022-07-22T09:47:31;97969.06;;;38.33;24.25
71915;BME280;60387;49.994;14.660;2022-07-22T09:50:14;97967.78;;;38.43;22.31
71915;BME280;60387;49.994;14.660;2022-07-22T09:52:48;97971.53;;;38.49;22.64
71915;BME280;60387;49.994;14.660;2022-07-22T09:55:23;97957.88;;;38.39;23.15
71915;BME280;60387;49.994;14.660;2022-07-22T09:57:57;97963.66;;;38.12;22.99
71915;BME280;60387;49.994;14.660;2022-07-22T10:00:30;97955.53;;;37.87;23.71
71915;BME280;60387;49.994;14.660;2022-07-22T10:03:11;97955.84;;;37.89;24.54
71915;BME280;60387;49.994;14.660;2022-07-22T10:05:46;97935.22;;;38.06;23.76
71915;BME280;60387;49.994;14.660;2022-07-22T10:08:20;97940.44;;;38.31;22.94
71915;BME280;60387;49.994;14.660;2022-07-22T10:10:59;97946.50;;;38.48;22.32
71915;BME280;60387;49.994;14.660;2022-07-22T10:13:34;97947.47;;;38.45;23.17
71915;BME280;60387;49.994;14.660;2022-07-22T10:16:07;97949.50;;;38.44;23.61
71915;BME280;60387;49.994;14.660;2022-07-22T10:18:45;97946.31;;;38.51;22.43
71915;BME280;60387;49.994;14.660;2022-07-22T10:21:30;97945.19;;;38.58;23.10
71915;BME280;60387;49.994;14.660;2022-07-22T10:26:49;97932.72;;;38.88;22.98
71915;BME280;60387;49.994;14.660;2022-07-22T10:32:22;97940.56;;;39.31;22.84
71915;BME280;60387;49.994;14.660;2022-07-22T10:43:32;97929.72;;;39.43;22.49
71915;BME280;60387;49.994;14.660;2022-07-22T10:46:18;97930.50;;;39.44;22.26
71915;BME280;60387;49.994;14.660;2022-07-22T10:48:51;97930.78;;;39.46;22.18
71915;BME280;60387;49.994;14.660;2022-07-22T10:51:25;97929.03;;;39.48;21.97
71915;BME280;60387;49.994;14.660;2022-07-22T10:54:00;97929.81;;;39.49;23.11
71915;BME280;60387;49.994;14.660;2022-07-22T10:56:35;97922.38;;;39.51;22.43
71915;BME280;60387;49.994;14.660;2022-07-22T10:59:10;97918.88;;;39.56;20.79
71915;BME280;60387;49.994;14.660;2022-07-22T11:01:47;97911.03;;;39.51;22.30
71915;BME280;60387;49.994;14.660;2022-07-22T11:04:23;97919.84;;;39.53;21.26
71915;BME280;60387;49.994;14.660;2022-07-22T11:06:57;97909.19;;;39.63;21.90
71915;BME280;60387;49.994;14.660;2022-07-22T11:09:32;97905.50;;;39.71;21.75
71915;BME280;60387;49.994;14.660;2022-07-22T11:12:12;97903.31;;;39.52;21.59
71915;BME280;60387;49.994;14.660;2022-07-22T11:14:45;97899.84;;;39.05;21.70
71915;BME280;60387;49.994;14.660;2022-07-22T11:17:18;97896.91;;;38.52;21.81
71915;BME280;60387;49.994;14.660;2022-07-22T11:19:52;97890.59;;;38.01;22.96
71915;BME280;60387;49.994;14.660;2022-07-22T11:22:25;97889.31;;;37.61;23.69
71915;BME280;60387;49.994;14.660;2022-07-22T11:25:05;97884.63;;;37.40;23.78
71915;BME280;60387;49.994;14.660;2022-07-22T11:27:39;97880.22;;;37.48;23.22
71915;BME280;60387;49.994;14.660;2022-07-22T11:30:13;97883.16;;;37.71;23.16
71915;BME280;60387;49.994;14.660;2022-07-22T11:32:47;97879.75;;;37.91;22.94
71915;BME280;60387;49.994;14.660;2022-07-22T11:35:21;97883.09;;;37.89;23.58
71915;BME280;60387;49.994;14.660;2022-07-22T11:37:56;97879.50;;;37.80;23.35
71915;BME280;60387;49.994;14.660;2022-07-22T11:40:32;97871.94;;;37.86;23.94
71915;BME280;60387;49.994;14.660;2022-07-22T11:43:05;97881.31;;;37.92;23.30
71915;BME280;60387;49.994;14.660;2022-07-22T11:45:55;97862.00;;;37.90;22.81
71915;BME280;60387;49.994;14.660;2022-07-22T11:48:29;97872.97;;;38.06;23.78
71915;BME280;60387;49.994;14.660;2022-07-22T11:51:03;97874.22;;;38.05;23.25
71915;BME280;60387;49.994;14.660;2022-07-22T11:53:41;97872.28;;;38.11;23.68
71915;BME280;60387;49.994;14.660;2022-07-22T11:56:14;97871.03;;;38.12;23.91
71915;BME280;60387;49.994;14.660;2022-07-22T11:58:49;97864.34;;;37.92;23.50
71915;BME280;60387;49.994;14.660;2022-07-22T12:01:24;97870.25;;;37.70;23.75
71915;BME280;60387;49.994;14.660;2022-07-22T12:04:00;97853.31;;;37.61;23.57
71915;BME280;60387;49.994;14.660;2022-07-22T12:06:36;97861.53;;;37.50;23.34
71915;BME280;60387;49.994;14.660;2022-07-22T12:09:12;97855.59;;;37.39;24.38
71915;BME280;60387;49.994;14.660;2022-07-22T12:11:48;97856.81;;;37.47;23.76
71915;BME280;60387;49.994;14.660;2022-07-22T12:14:25;97848.97;;;37.51;23.76
71915;BME280;60387;49.994;14.660;2022-07-22T12:17:06;97855.56;;;37.57;24.08
71915;BME280;60387;49.994;14.660;2022-07-22T12:19:40;97850.78;;;37.72;23.53
71915;BME280;60387;49.994;14.660;2022-07-22T12:22:22;97844.25;;;37.90;23.07
71915;BME280;60387;49.994;14.660;2022-07-22T12:25:00;97847.03;;;37.99;23.60
71915;BME280;60387;49.994;14.660;2022-07-22T12:27:34;97846.81;;;38.11;23.36
71915;BME280;60387;49.994;14.660;2022-07-22T12:30:12;97845.63;;;38.27;22.61
71915;BME280;60387;49.994;14.660;2022-07-22T12:32:46;97846.00;;;38.43;22.50
71915;BME280;60387;49.994;14.660;2022-07-22T12:35:20;97840.88;;;38.56;21.88
71915;BME280;60387;49.994;14.660;2022-07-22T12:37:53;97846.03;;;38.81;22.20
71915;BME280;60387;49.994;14.660;2022-07-22T12:40:27;97845.97;;;38.90;22.16
71915;BME280;60387;49.994;14.660;2022-07-22T12:43:04;97840.00;;;39.03;22.10
71915;BME280;60387;49.994;14.660;2022-07-22T12:45:38;97841.97;;;39.11;21.64
71915;BME280;60387;49.994;14.660;2022-07-22T12:48:11;97843.44;;;39.21;22.58
71915;BME280;60387;49.994;14.660;2022-07-22T12:50:58;97833.00;;;39.27;22.26
71915;BME280;60387;49.994;14.660;2022-07-22T12:53:31;97832.22;;;39.27;21.09
71915;BME280;60387;49.994;14.660;2022-07-22T12:56:04;97835.91;;;39.04;21.67
71915;BME280;60387;49.994;14.660;2022-07-22T12:58:38;97829.78;;;38.67;22.19
71915;BME280;60387;49.994;14.660;2022-07-22T13:01:11;97826.13;;;38.29;22.76
71915;BME280;60387;49.994;14.660;2022-07-22T13:03:45;97818.00;;;37.98;22.78
71915;BME280;60387;49.994;14.660;2022-07-22T13:06:18;97824.22;;;37.70;23.46
71915;BME280;60387;49.994;14.660;2022-07-22T13:08:51;97811.44;;;37.51;22.85
71915;BME280;60387;49.994;14.660;2022-07-22T13:11:24;97805.13;;;37.47;23.18
71915;BME280;60387;49.994;14.660;2022-07-22T13:13:59;97812.50;;;37.53;22.94
71915;BME280;60387;49.994;14.660;2022-07-22T13:16:33;97807.00;;;37.59;23.47
71915;BME280;60387;49.994;14.660;2022-07-22T13:19:06;97813.69;;;37.70;23.67
71915;BME280;60387;49.994;14.660;2022-07-22T13:21:39;97807.34;;;37.84;23.33
71915;BME280;60387;49.994;14.660;2022-07-22T13:24:12;97810.38;;;38.04;22.70
71915;BME280;60387;49.994;14.660;2022-07-22T13:26:46;97799.84;;;38.28;23.14
71915;BME280;60387;49.994;14.660;2022-07-22T13:29:19;97803.94;;;38.51;21.87
71915;BME280;60387;49.994;14.660;2022-07-22T13:31:52;97800.19;;;38.68;21.31
71915;BME280;60387;49.994;14.660;2022-07-22T13:34:25;97800.09;;;38.77;21.10
71915;BME280;60387;49.994;14.660;2022-07-22T13:37:00;97796.97;;;38.75;21.85
71915;BME280;60387;49.994;14.660;2022-07-22T13:39:33;97807.03;;;38.76;21.23
71915;BME280;60387;49.994;14.660;2022-07-22T13:42:06;97789.75;;;38.74;21.60